Time;durP1;ratioP1;P1;durP2;ratioP2;P2;SDS_P1;SDS_P2;PMS_P1;PMS_P2;Temp;Humidity;BMP_temperature;BMP_pressure;BME280_temperature;BME280_humidity;BME280_pressure;Samples;Min_cycle;Max_cycle;Signal;HPM_P1;HPM_P2
2021/03/04 00:02:56;;;;;;;61.17;34.58;;;5.70;99.90;;;;;;12436800;28;20109;-82
2021/03/04 00:08:58;;;;;;;64.90;35.67;;;5.90;99.90;;;;;;12439991;28;20076;-83
2021/03/04 00:15:00;;;;;;;56.95;34.17;;;5.80;99.90;;;;;;12447158;28;20057;-83
2021/03/04 00:21:16;;;;;;;63.78;34.85;;;6.00;99.90;;;;;;12465202;28;20446;-83
2021/03/04 00:27:17;;;;;;;61.83;33.63;;;5.90;99.90;;;;;;12445078;28;20672;-82
2021/03/04 00:33:18;;;;;;;63.47;35.40;;;5.70;99.90;;;;;;12443755;28;20083;-83
2021/03/04 00:39:20;;;;;;;64.80;36.58;;;5.60;99.90;;;;;;12437024;28;20054;-82
2021/03/04 00:45:24;;;;;;;62.67;35.20;;;5.30;99.90;;;;;;12440911;28;20076;-83
2021/03/04 00:51:41;;;;;;;66.90;36.17;;;5.30;99.90;;;;;;12437911;28;20049;-82
2021/03/04 00:57:42;;;;;;;62.25;34.42;;;5.20;99.90;;;;;;12440440;28;20082;-82
2021/03/04 01:03:44;;;;;;;60.47;33.28;;;5.10;99.90;;;;;;12427274;28;20046;-83
2021/03/04 01:09:45;;;;;;;68.57;34.58;;;5.10;99.90;;;;;;12441367;28;20132;-83
2021/03/04 01:15:46;;;;;;;61.83;33.17;;;5.00;99.90;;;;;;12428609;28;20046;-82
2021/03/04 01:22:00;;;;;;;63.65;35.05;;;5.10;99.90;;;;;;12436367;28;20041;-82
2021/03/04 01:28:02;;;;;;;60.30;34.70;;;5.30;99.90;;;;;;12455088;28;20107;-83
2021/03/04 01:34:03;;;;;;;67.80;35.70;;;5.30;99.90;;;;;;12442859;28;20064;-83
2021/03/04 01:40:10;;;;;;;66.88;36.17;;;5.40;99.90;;;;;;12460860;28;20144;-82
2021/03/04 01:46:12;;;;;;;64.13;35.70;;;5.40;99.90;;;;;;12444513;28;20100;-82
2021/03/04 01:52:25;;;;;;;66.00;36.92;;;5.30;99.90;;;;;;12445605;28;20045;-82
2021/03/04 01:58:26;;;;;;;70.55;36.78;;;5.20;99.90;;;;;;12458296;28;20073;-82
2021/03/04 02:04:28;;;;;;;63.00;34.03;;;5.30;99.90;;;;;;12461367;28;20041;-83
2021/03/04 02:11:02;;;;;;;68.72;36.65;;;5.20;99.90;;;;;;12445589;28;20375;-83
2021/03/04 02:17:08;;;;;;;66.47;34.53;;;5.00;99.90;;;;;;12437733;28;20045;-83
2021/03/04 02:23:09;;;;;;;68.70;34.90;;;4.90;99.90;;;;;;12456392;28;20121;-82
2021/03/04 02:29:17;;;;;;;65.22;34.40;;;4.60;99.90;;;;;;12443716;28;20092;-83
2021/03/04 02:35:25;;;;;;;68.85;34.00;;;4.80;99.90;;;;;;12428846;28;20053;-82
2021/03/04 02:41:28;;;;;;;67.63;33.15;;;4.90;99.90;;;;;;12447412;28;20378;-82
2021/03/04 02:47:29;;;;;;;68.50;34.20;;;4.80;99.90;;;;;;12439030;28;20128;-82
2021/03/04 02:53:34;;;;;;;62.03;33.30;;;4.70;99.90;;;;;;12428337;28;20152;-82
2021/03/04 02:59:38;;;;;;;71.75;35.15;;;4.80;99.90;;;;;;12443656;28;20088;-82
2021/03/04 03:05:41;;;;;;;72.40;37.00;;;4.90;99.90;;;;;;12438802;28;20116;-82
2021/03/04 03:11:43;;;;;;;79.53;37.15;;;4.80;99.90;;;;;;12441124;28;20045;-82
2021/03/04 03:17:46;;;;;;;72.00;34.47;;;4.80;99.90;;;;;;12433093;28;20089;-82
2021/03/04 03:23:48;;;;;;;73.85;33.47;;;4.80;99.90;;;;;;12434438;28;20176;-82
2021/03/04 03:29:49;;;;;;;76.05;33.72;;;4.60;99.90;;;;;;12429259;28;20065;-83
2021/03/04 03:35:51;;;;;;;65.22;34.25;;;4.60;99.90;;;;;;12443496;28;20128;-82
2021/03/04 03:41:53;;;;;;;68.00;32.97;;;4.40;99.90;;;;;;12433592;28;20056;-82
2021/03/04 03:47:55;;;;;;;67.38;32.08;;;4.30;99.90;;;;;;12442456;28;20107;-83
2021/03/04 03:53:59;;;;;;;68.80;31.95;;;4.40;99.90;;;;;;12437002;28;20045;-82
2021/03/04 04:00:03;;;;;;;70.70;31.70;;;4.40;99.90;;;;;;12460897;28;20050;-82
2021/03/04 04:06:04;;;;;;;64.78;31.50;;;4.30;99.90;;;;;;12465719;28;20160;-82
2021/03/04 04:12:06;;;;;;;69.70;31.38;;;4.30;99.90;;;;;;12443327;28;20136;-83
2021/03/04 04:18:08;;;;;;;69.82;30.35;;;4.30;99.90;;;;;;12461560;28;20084;-82
2021/03/04 04:24:21;;;;;;;71.45;31.20;;;4.20;99.90;;;;;;12440257;28;20060;-82
2021/03/04 04:30:24;;;;;;;73.93;32.85;;;4.10;99.90;;;;;;12457705;28;20102;-82
2021/03/04 04:36:26;;;;;;;71.03;31.83;;;3.80;99.90;;;;;;12445150;28;20046;-82
2021/03/04 04:42:27;;;;;;;76.45;33.10;;;4.10;99.90;;;;;;12437384;28;20096;-82
2021/03/04 04:48:28;;;;;;;80.35;33.70;;;4.30;99.90;;;;;;12440452;28;20083;-82
2021/03/04 04:54:45;;;;;;;80.65;34.63;;;4.00;99.90;;;;;;12436272;28;20077;-83
2021/03/04 05:00:47;;;;;;;80.03;35.50;;;4.20;99.90;;;;;;12425340;28;20066;-82
2021/03/04 05:06:48;;;;;;;88.10;35.90;;;4.10;99.90;;;;;;12436666;28;20119;-82
2021/03/04 05:12:49;;;;;;;85.28;35.42;;;4.10;99.90;;;;;;12436938;28;20132;-82
2021/03/04 05:18:50;;;;;;;90.10;35.17;;;4.20;99.90;;;;;;12433826;28;20760;-82
2021/03/04 05:25:07;;;;;;;89.35;35.88;;;4.00;99.90;;;;;;12439241;28;20584;-82
2021/03/04 05:31:08;;;;;;;79.45;32.95;;;4.10;99.90;;;;;;12442767;28;20042;-82
2021/03/04 05:37:09;;;;;;;89.20;34.63;;;4.00;99.90;;;;;;12459544;28;20092;-83
2021/03/04 05:43:11;;;;;;;85.25;34.13;;;4.10;99.90;;;;;;12431199;28;20069;-82
2021/03/04 05:49:15;;;;;;;89.22;33.38;;;4.00;99.90;;;;;;12446255;28;20045;-82
2021/03/04 05:55:31;;;;;;;82.20;31.60;;;4.10;99.90;;;;;;12444463;28;20045;-82
2021/03/04 06:01:32;;;;;;;76.03;30.02;;;4.00;99.90;;;;;;12455555;28;20056;-82
2021/03/04 06:07:34;;;;;;;83.30;31.73;;;4.00;99.90;;;;;;12438938;28;20056;-82
2021/03/04 06:13:36;;;;;;;86.13;32.60;;;4.00;99.90;;;;;;12450841;28;20124;-84
2021/03/04 06:19:37;;;;;;;90.25;34.92;;;4.00;99.90;;;;;;12428062;28;20075;-84
2021/03/04 06:25:50;;;;;;;89.78;33.33;;;3.90;99.90;;;;;;12427922;28;20053;-84
2021/03/04 06:32:05;;;;;;;84.43;33.22;;;4.00;99.90;;;;;;12432228;28;20057;-83
2021/03/04 06:38:21;;;;;;;101.80;34.97;;;4.00;99.90;;;;;;12435488;28;20124;-83
2021/03/04 06:44:23;;;;;;;98.85;35.15;;;4.00;99.90;;;;;;12434043;28;20345;-83
2021/03/04 06:50:25;;;;;;;100.28;34.40;;;3.90;99.90;;;;;;12437164;28;20538;-83
2021/03/04 06:56:28;;;;;;;100.60;35.80;;;3.90;99.90;;;;;;12436305;28;20104;-84
2021/03/04 07:02:30;;;;;;;97.97;33.20;;;4.00;99.90;;;;;;12429591;28;20114;-83
2021/03/04 07:08:35;;;;;;;107.13;31.40;;;4.00;99.90;;;;;;12433050;28;20623;-83
2021/03/04 07:14:37;;;;;;;107.03;30.73;;;3.80;99.90;;;;;;12440878;28;20725;-84
2021/03/04 07:20:38;;;;;;;94.63;29.90;;;4.00;99.90;;;;;;12433435;28;20109;-84
2021/03/04 07:26:45;;;;;;;90.32;29.23;;;3.90;99.90;;;;;;12438533;28;20417;-84
2021/03/04 07:32:46;;;;;;;92.07;30.63;;;4.00;99.90;;;;;;12468343;28;20041;-84
2021/03/04 07:38:59;;;;;;;93.10;29.48;;;4.00;99.90;;;;;;12450016;28;20553;-84
2021/03/04 07:45:15;;;;;;;125.95;30.38;;;4.00;99.90;;;;;;12452315;28;20062;-84
2021/03/04 07:51:16;;;;;;;100.35;29.42;;;4.00;99.90;;;;;;12458430;28;20501;-84
2021/03/04 07:57:25;;;;;;;93.45;28.52;;;4.10;99.90;;;;;;12466052;28;20114;-84
2021/03/04 08:03:27;;;;;;;93.25;26.77;;;3.90;99.90;;;;;;12458365;28;20087;-83
2021/03/04 08:09:33;;;;;;;86.45;28.10;;;3.90;99.90;;;;;;12438991;28;20104;-84
2021/03/04 08:15:46;;;;;;;77.38;25.15;;;3.90;99.90;;;;;;12448322;28;20053;-84
2021/03/04 08:21:48;;;;;;;69.03;23.85;;;4.00;99.90;;;;;;12443355;28;20049;-84
2021/03/04 08:27:51;;;;;;;59.78;20.38;;;4.00;99.90;;;;;;12441559;28;20054;-83
2021/03/04 08:33:57;;;;;;;51.13;20.20;;;3.80;99.90;;;;;;12446401;28;20081;-83
2021/03/04 08:40:02;;;;;;;57.90;20.83;;;3.90;99.90;;;;;;12445560;28;20085;-84
2021/03/04 08:46:06;;;;;;;59.33;20.52;;;3.90;99.90;;;;;;12459405;28;20115;-84
2021/03/04 08:52:08;;;;;;;;;;;4.00;99.90;;;;;;12447428;28;20046;-83
2021/03/04 08:58:10;;;;;;;56.58;20.80;;;3.80;99.90;;;;;;12460892;28;19952;-83
2021/03/04 09:04:26;;;;;;;55.67;20.30;;;4.00;99.90;;;;;;12467009;28;20049;-83
2021/03/04 09:10:28;;;;;;;54.47;20.35;;;3.80;99.90;;;;;;12445819;28;20041;-84
2021/03/04 09:16:40;;;;;;;49.35;18.88;;;3.70;99.90;;;;;;12454586;28;20466;-84
2021/03/04 09:22:43;;;;;;;43.28;17.05;;;3.70;99.90;;;;;;12450920;28;20184;-84
2021/03/04 09:28:45;;;;;;;44.63;16.45;;;3.80;99.90;;;;;;12463393;28;20058;-84
2021/03/04 09:34:46;;;;;;;45.00;17.10;;;3.90;99.90;;;;;;12448409;28;20062;-84
2021/03/04 09:40:48;;;;;;;37.50;16.20;;;3.70;99.90;;;;;;12466394;28;20053;-84
2021/03/04 09:46:49;;;;;;;41.20;16.63;;;3.80;99.90;;;;;;12467215;28;20290;-84
2021/03/04 09:52:59;;;;;;;42.25;17.77;;;3.80;99.90;;;;;;12449141;28;20049;-83
2021/03/04 09:59:00;;;;;;;40.28;16.58;;;3.70;99.90;;;;;;12452989;28;20138;-83
2021/03/04 10:05:03;;;;;;;41.92;16.63;;;3.50;99.90;;;;;;12431838;28;20034;-83
2021/03/04 10:11:05;;;;;;;38.17;16.25;;;3.70;99.90;;;;;;12442666;28;20050;-84
2021/03/04 10:17:07;;;;;;;36.13;14.88;;;3.60;99.90;;;;;;12436599;28;20177;-83
2021/03/04 10:23:09;;;;;;;35.17;14.95;;;3.70;99.90;;;;;;12441997;28;20080;-84
2021/03/04 10:29:11;;;;;;;31.67;13.35;;;3.60;99.90;;;;;;12438744;28;20061;-84
2021/03/04 10:35:15;;;;;;;29.73;14.05;;;3.60;99.90;;;;;;12457054;28;20041;-84
2021/03/04 10:41:16;;;;;;;27.93;12.93;;;3.70;99.90;;;;;;12443705;28;20104;-84
2021/03/04 10:47:17;;;;;;;26.50;11.80;;;3.80;99.90;;;;;;12464764;28;20076;-83
2021/03/04 10:53:19;;;;;;;28.08;11.70;;;3.80;99.90;;;;;;12444524;28;20132;-84
2021/03/04 10:59:20;;;;;;;23.55;10.93;;;3.80;99.90;;;;;;12443545;28;20105;-84
2021/03/04 11:05:22;;;;;;;21.98;11.18;;;3.90;99.90;;;;;;12436719;28;20073;-84
2021/03/04 11:11:23;;;;;;;21.10;8.95;;;3.80;99.90;;;;;;12446059;28;20117;-84
2021/03/04 11:17:24;;;;;;;21.98;10.23;;;3.90;99.90;;;;;;12449395;28;20062;-84
2021/03/04 11:23:26;;;;;;;25.17;10.65;;;4.00;99.90;;;;;;12461860;28;20049;-84
2021/03/04 11:29:33;;;;;;;23.90;11.02;;;3.90;99.90;;;;;;12437308;28;20057;-83
2021/03/04 11:35:34;;;;;;;24.08;11.00;;;4.10;99.90;;;;;;12436164;28;20081;-84
2021/03/04 11:41:36;;;;;;;25.05;10.13;;;4.20;99.90;;;;;;12443894;28;20041;-84
2021/03/04 11:47:37;;;;;;;19.10;8.57;;;4.30;99.90;;;;;;12438202;28;20107;-83
2021/03/04 11:53:39;;;;;;;20.17;9.38;;;4.10;99.90;;;;;;12456531;28;21077;-84
2021/03/04 11:59:56;;;;;;;17.75;8.80;;;4.10;99.90;;;;;;12436426;28;20057;-84
2021/03/04 12:05:58;;;;;;;21.23;9.00;;;4.20;99.90;;;;;;12433815;28;20083;-84
2021/03/04 12:12:00;;;;;;;18.35;8.45;;;4.20;99.90;;;;;;12460726;28;20064;-84
2021/03/04 12:18:02;;;;;;;22.77;8.40;;;4.20;99.90;;;;;;12451970;28;20116;-84
2021/03/04 12:24:04;;;;;;;23.55;9.88;;;4.10;99.90;;;;;;12454915;28;20050;-84
2021/03/04 12:30:18;;;;;;;23.73;9.98;;;4.00;99.90;;;;;;12450807;28;20080;-84
2021/03/04 12:36:19;;;;;;;22.05;9.73;;;4.20;99.90;;;;;;12455890;28;20506;-84
2021/03/04 12:42:21;;;;;;;22.48;10.02;;;4.10;99.90;;;;;;12458775;28;20132;-84
2021/03/04 12:48:22;;;;;;;23.60;9.48;;;3.90;99.90;;;;;;12449982;28;20096;-84
2021/03/04 12:54:24;;;;;;;20.52;9.10;;;3.90;99.90;;;;;;12448111;28;20117;-84
2021/03/04 13:00:35;;;;;;;22.92;9.32;;;3.80;99.90;;;;;;12444372;28;20383;-84
2021/03/04 13:06:37;;;;;;;18.48;8.88;;;3.90;99.90;;;;;;12444184;28;20067;-84
2021/03/04 13:12:38;;;;;;;16.75;8.55;;;3.90;99.90;;;;;;12429567;28;20127;-83
2021/03/04 13:18:39;;;;;;;18.33;8.43;;;3.90;99.90;;;;;;12434061;28;20137;-83
2021/03/04 13:24:41;;;;;;;16.95;8.27;;;3.70;99.90;;;;;;12423600;28;20638;-83
2021/03/04 13:31:00;;;;;;;17.13;7.82;;;3.80;99.90;;;;;;12434165;28;20436;-83
2021/03/04 13:37:01;;;;;;;15.70;7.90;;;4.10;99.90;;;;;;12420043;28;20402;-83
2021/03/04 13:43:03;;;;;;;13.18;6.80;;;4.30;99.90;;;;;;12432124;28;20038;-84
2021/03/04 13:49:04;;;;;;;14.60;7.18;;;4.50;99.90;;;;;;12443445;28;20058;-83
2021/03/04 13:55:06;;;;;;;12.43;6.15;;;4.70;99.90;;;;;;12447485;28;20447;-84
2021/03/04 14:01:21;;;;;;;;;;;4.90;99.90;;;;;;12444264;28;20443;-83
2021/03/04 14:07:23;;;;;;;12.43;6.45;;;4.90;99.90;;;;;;12445575;28;19925;-83
2021/03/04 14:13:24;;;;;;;11.60;6.57;;;5.00;99.90;;;;;;12437161;28;20054;-84
2021/03/04 14:19:25;;;;;;;12.18;7.32;;;4.80;99.90;;;;;;12466252;28;20054;-84
2021/03/04 14:25:27;;;;;;;13.60;6.55;;;4.70;99.90;;;;;;12437911;28;20136;-83
2021/03/04 14:31:43;;;;;;;11.57;6.50;;;4.80;99.90;;;;;;12449122;28;20045;-84
2021/03/04 14:37:46;;;;;;;14.63;6.60;;;4.70;99.90;;;;;;12436316;28;20052;-84
2021/03/04 14:43:47;;;;;;;14.00;6.85;;;4.60;99.90;;;;;;12457718;28;20088;-83
2021/03/04 14:49:55;;;;;;;13.45;6.45;;;4.70;99.90;;;;;;12451425;28;20100;-84
2021/03/04 14:55:56;;;;;;;13.52;7.30;;;4.60;99.90;;;;;;12446027;28;20053;-84
2021/03/04 15:02:11;;;;;;;15.80;7.13;;;4.60;99.90;;;;;;12435990;28;20041;-83
2021/03/04 15:08:13;;;;;;;16.20;7.55;;;4.50;99.90;;;;;;12449783;28;20085;-84
2021/03/04 15:14:15;;;;;;;14.93;7.45;;;4.50;99.90;;;;;;12431865;28;20049;-83
2021/03/04 15:20:16;;;;;;;16.30;7.78;;;4.50;99.90;;;;;;12439485;28;20133;-84
2021/03/04 15:26:18;;;;;;;18.35;7.90;;;4.50;99.90;;;;;;12436753;28;20123;-83
2021/03/04 15:32:30;;;;;;;14.35;7.55;;;4.40;99.90;;;;;;12439549;28;20057;-84
2021/03/04 15:38:35;;;;;;;18.10;8.15;;;4.40;99.90;;;;;;12435952;28;20038;-83
2021/03/04 15:44:36;;;;;;;14.95;7.30;;;4.40;99.90;;;;;;12442295;28;20054;-84
2021/03/04 15:50:38;;;;;;;19.35;8.30;;;4.40;99.90;;;;;;12446238;28;20049;-84
2021/03/04 15:56:39;;;;;;;19.02;8.05;;;4.60;99.90;;;;;;12456123;28;20085;-85
2021/03/04 16:02:58;;;;;;;18.50;7.78;;;4.70;99.90;;;;;;12454760;28;20073;-84
2021/03/04 16:09:00;;;;;;;17.83;8.27;;;4.70;99.90;;;;;;12471629;28;20197;-84
2021/03/04 16:15:03;;;;;;;17.42;8.23;;;4.70;99.90;;;;;;12462239;28;20506;-84
2021/03/04 16:21:09;;;;;;;17.77;8.88;;;4.70;99.90;;;;;;12468946;28;20054;-84
2021/03/04 16:27:11;;;;;;;16.95;8.13;;;4.70;99.90;;;;;;12466891;28;20050;-84
2021/03/04 16:33:17;;;;;;;17.42;7.60;;;4.80;99.90;;;;;;12469842;28;20095;-84
2021/03/04 16:39:19;;;;;;;19.58;8.35;;;4.80;99.90;;;;;;12459999;28;20878;-85
2021/03/04 16:45:20;;;;;;;16.83;8.32;;;4.60;99.90;;;;;;12458529;28;20045;-84
2021/03/04 16:51:23;;;;;;;14.80;8.38;;;4.70;99.90;;;;;;12462569;28;20102;-84
2021/03/04 16:57:25;;;;;;;14.90;7.78;;;4.70;99.90;;;;;;12459888;28;20053;-83
2021/03/04 17:03:41;;;;;;;18.27;8.70;;;4.70;99.90;;;;;;12455798;28;20608;-84
2021/03/04 17:09:42;;;;;;;19.13;9.55;;;4.50;99.90;;;;;;12450109;28;20184;-84
2021/03/04 17:15:44;;;;;;;16.67;8.38;;;4.70;99.90;;;;;;12473208;28;20112;-86
2021/03/04 17:21:47;;;;;;;15.82;8.52;;;4.60;99.90;;;;;;12446257;28;20134;-83
2021/03/04 17:27:48;;;;;;;22.02;9.95;;;4.60;99.90;;;;;;12443109;28;20057;-83
2021/03/04 17:34:03;;;;;;;18.45;9.05;;;4.50;99.90;;;;;;12455488;28;20092;-83
2021/03/04 17:40:05;;;;;;;19.13;10.32;;;4.50;99.90;;;;;;12437135;28;20100;-83
2021/03/04 17:46:06;;;;;;;20.17;10.82;;;4.60;99.90;;;;;;12450000;28;20065;-82
2021/03/04 17:52:08;;;;;;;20.90;10.05;;;4.60;99.90;;;;;;12446634;28;20065;-83
2021/03/04 17:58:09;;;;;;;27.38;10.82;;;4.50;99.90;;;;;;12445949;28;20112;-83
2021/03/04 18:04:26;;;;;;;21.80;11.10;;;4.60;99.90;;;;;;12448547;28;20089;-83
2021/03/04 18:10:28;;;;;;;24.15;10.85;;;4.40;99.90;;;;;;12442035;28;20401;-83
2021/03/04 18:16:30;;;;;;;24.90;12.07;;;4.40;99.90;;;;;;12443504;28;20088;-83
2021/03/04 18:22:31;;;;;;;26.55;13.45;;;4.50;99.90;;;;;;12434633;28;20053;-83
2021/03/04 18:28:33;;;;;;;22.20;12.48;;;4.50;99.90;;;;;;12443727;28;20080;-82
2021/03/04 18:34:51;;;;;;;25.83;11.57;;;4.50;99.90;;;;;;12440420;28;20471;-83
2021/03/04 18:40:55;;;;;;;18.08;10.40;;;4.60;99.90;;;;;;12431495;28;20064;-83
2021/03/04 18:46:58;;;;;;;23.38;11.65;;;4.60;99.90;;;;;;12449844;28;20042;-83
2021/03/04 18:52:59;;;;;;;25.92;10.88;;;4.60;99.90;;;;;;12454807;28;20045;-83
2021/03/04 18:59:00;;;;;;;25.60;12.30;;;4.70;99.90;;;;;;12460291;28;20050;-83
2021/03/04 19:05:12;;;;;;;23.42;12.63;;;4.60;99.90;;;;;;12456573;28;20185;-82
2021/03/04 19:11:13;;;;;;;22.55;10.60;;;4.60;99.90;;;;;;12452866;28;20042;-83
2021/03/04 19:17:15;;;;;;;19.25;9.77;;;4.60;99.90;;;;;;12455752;28;20053;-83
2021/03/04 19:23:16;;;;;;;22.20;7.55;;;4.70;99.90;;;;;;12457944;28;20033;-84
2021/03/04 19:29:18;;;;;;;22.98;6.65;;;4.60;99.90;;;;;;12471511;28;20053;-84
2021/03/04 19:35:35;;;;;;;25.65;6.55;;;4.60;99.90;;;;;;12468357;28;20049;-84
2021/03/04 19:41:36;;;;;;;19.45;5.45;;;4.50;99.90;;;;;;12471193;28;20037;-84
2021/03/04 19:47:38;;;;;;;23.73;5.65;;;4.50;99.90;;;;;;12474735;28;20128;-84
2021/03/04 19:53:39;;;;;;;19.27;4.45;;;4.60;99.90;;;;;;12481676;28;20053;-83
2021/03/04 19:59:41;;;;;;;19.17;4.53;;;4.50;99.90;;;;;;12483583;28;20065;-84
2021/03/04 20:05:53;;;;;;;17.65;4.82;;;4.40;99.90;;;;;;12472523;28;20038;-84
2021/03/04 20:11:55;;;;;;;21.88;4.38;;;4.50;99.90;;;;;;12463165;28;20046;-83
2021/03/04 20:17:56;;;;;;;17.88;4.28;;;4.50;99.90;;;;;;12469081;28;20477;-83
2021/03/04 20:23:58;;;;;;;17.90;4.22;;;4.40;99.90;;;;;;12470936;28;20579;-84
2021/03/04 20:30:01;;;;;;;20.42;4.20;;;4.40;99.90;;;;;;12470926;28;20049;-83
2021/03/04 20:36:21;;;;;;;23.30;3.83;;;4.30;99.90;;;;;;12462151;28;20049;-83
2021/03/04 20:42:26;;;;;;;;;;;4.30;99.90;;;;;;12468853;28;20050;-83
2021/03/04 20:48:27;;;;;;;19.33;4.55;;;4.30;99.90;;;;;;12458306;28;20396;-83
2021/03/04 20:54:29;;;;;;;25.20;5.30;;;4.20;99.90;;;;;;12475554;28;20386;-83
2021/03/04 21:00:31;;;;;;;23.92;5.95;;;4.30;99.90;;;;;;12465672;28;20568;-83
2021/03/04 21:06:46;;;;;;;22.92;4.85;;;4.10;99.90;;;;;;12465702;28;20049;-83
2021/03/04 21:12:47;;;;;;;21.30;5.30;;;4.20;99.90;;;;;;12439387;28;20069;-84
2021/03/04 21:18:48;;;;;;;25.27;5.22;;;4.20;99.90;;;;;;12462979;28;20056;-84
2021/03/04 21:24:50;;;;;;;27.83;5.28;;;4.20;99.90;;;;;;12457558;28;20131;-84
2021/03/04 21:30:52;;;;;;;25.45;5.18;;;4.10;99.90;;;;;;12477695;28;20080;-85
2021/03/04 21:37:07;;;;;;;20.60;5.65;;;4.00;99.90;;;;;;12460878;28;20049;-84
2021/03/04 21:43:08;;;;;;;28.25;6.22;;;3.90;99.90;;;;;;12482912;28;20076;-83
2021/03/04 21:49:10;;;;;;;27.58;6.03;;;3.90;99.90;;;;;;12459150;28;20033;-84
2021/03/04 21:55:12;;;;;;;25.85;8.32;;;3.90;99.90;;;;;;12464100;28;20061;-83
2021/03/04 22:01:13;;;;;;;29.05;7.55;;;3.80;99.90;;;;;;12479471;28;20657;-83
2021/03/04 22:07:32;;;;;;;20.83;9.52;;;3.80;99.90;;;;;;12474068;28;20050;-82
2021/03/04 22:13:34;;;;;;;17.13;9.98;;;3.60;99.90;;;;;;12473346;28;20046;-82
2021/03/04 22:19:35;;;;;;;17.15;10.27;;;3.40;99.90;;;;;;12462178;28;20069;-82
2021/03/04 22:25:36;;;;;;;21.05;11.75;;;3.30;99.90;;;;;;12488381;28;20064;-83
2021/03/04 22:31:38;;;;;;;18.58;10.65;;;3.10;99.90;;;;;;12461215;28;20073;-82
2021/03/04 22:37:53;;;;;;;21.38;11.43;;;3.10;99.90;;;;;;12469936;28;20045;-82
2021/03/04 22:43:54;;;;;;;20.25;10.50;;;3.10;99.90;;;;;;12488180;28;20052;-82
2021/03/04 22:49:56;;;;;;;18.40;10.65;;;3.00;99.90;;;;;;12464998;28;20573;-82
2021/03/04 22:55:58;;;;;;;18.35;11.20;;;3.00;99.90;;;;;;12470210;28;20048;-82
2021/03/04 23:02:00;;;;;;;18.48;10.80;;;2.90;99.90;;;;;;12471427;28;20056;-82
2021/03/04 23:08:17;;;;;;;17.58;11.02;;;3.00;99.90;;;;;;12450273;28;20041;-82
2021/03/04 23:14:19;;;;;;;20.65;11.65;;;3.00;99.90;;;;;;12464321;28;20075;-82
2021/03/04 23:20:22;;;;;;;22.42;12.45;;;2.80;99.90;;;;;;12457807;28;20091;-83
2021/03/04 23:26:23;;;;;;;19.27;11.02;;;2.90;99.90;;;;;;12477083;28;20045;-83
2021/03/04 23:32:25;;;;;;;18.77;11.02;;;3.00;99.90;;;;;;12468226;28;20041;-83
2021/03/04 23:38:39;;;;;;;22.20;13.60;;;3.00;99.90;;;;;;12458107;28;20080;-83
2021/03/04 23:44:40;;;;;;;25.27;14.73;;;2.90;99.90;;;;;;12467684;28;20462;-83
2021/03/04 23:50:45;;;;;;;25.52;14.52;;;2.80;99.90;;;;;;12465547;28;20045;-83
2021/03/04 23:56:46;;;;;;;30.23;15.70;;;2.80;99.90;;;;;;12469504;28;20076;-83
